createdAt,value
2023-01-30T00:00:12.969Z,99381.16
2023-01-30T00:01:20.335Z,99377.69
2023-01-30T00:02:21.897Z,99372.50
2023-01-30T00:03:24.970Z,99364.66
2023-01-30T00:04:26.495Z,99364.59
2023-01-30T00:05:28.071Z,99361.19
2023-01-30T00:06:29.991Z,99363.78
2023-01-30T00:07:31.504Z,99363.09
2023-01-30T00:08:33.095Z,99364.81
2023-01-30T00:09:34.706Z,99367.47
2023-01-30T00:10:36.207Z,99365.03
2023-01-30T00:11:37.801Z,99358.22
2023-01-30T00:12:39.881Z,99352.94
2023-01-30T00:13:42.460Z,99358.28
2023-01-30T00:14:44.029Z,99349.72
2023-01-30T00:15:45.563Z,99346.38
2023-01-30T00:16:47.191Z,99347.25
2023-01-30T00:17:48.774Z,99347.38
2023-01-30T00:18:50.576Z,99340.63
2023-01-30T00:19:52.143Z,99340.63
2023-01-30T00:21:01.367Z,99338.84
2023-01-30T00:22:02.975Z,99337.22
2023-01-30T00:23:05.700Z,99338.94
2023-01-30T00:24:07.711Z,99337.31
2023-01-30T00:25:09.642Z,99339.94
2023-01-30T00:26:12.010Z,99336.69
2023-01-30T00:27:14.060Z,99339.88
2023-01-30T00:28:15.620Z,99342.44
2023-01-30T00:29:17.203Z,99324.34
2023-01-30T00:30:19.484Z,99328.81
2023-01-30T00:31:21.236Z,99320.09
2023-01-30T00:32:25.067Z,99321.75
2023-01-30T00:33:27.951Z,99321.78
2023-01-30T00:34:29.597Z,99309.69
2023-01-30T00:35:31.123Z,99296.22
2023-01-30T00:36:32.649Z,99299.47
2023-01-30T00:37:34.202Z,99296.03
2023-01-30T00:38:35.816Z,99292.47
2023-01-30T00:39:37.409Z,99286.41
2023-01-30T00:40:39.324Z,99287.16
2023-01-30T00:41:40.903Z,99276.97
2023-01-30T00:42:42.547Z,99275.28
2023-01-30T00:43:44.443Z,99270.97
2023-01-30T00:44:48.201Z,99269.28
2023-01-30T00:45:52.287Z,99263.22
2023-01-30T00:46:53.852Z,99267.50
2023-01-30T00:47:55.575Z,99266.00
2023-01-30T00:48:57.132Z,99266.97
2023-01-30T00:49:58.682Z,99266.25
2023-01-30T00:51:00.282Z,99265.38
2023-01-30T00:52:02.383Z,99264.47
2023-01-30T00:53:03.929Z,99268.75
2023-01-30T00:54:05.604Z,99271.16
2023-01-30T00:55:07.932Z,99275.28
2023-01-30T00:56:09.478Z,99263.44
2023-01-30T00:57:11.035Z,99260.78
2023-01-30T00:58:13.456Z,99254.59
2023-01-30T00:59:15.170Z,99249.50
2023-01-30T01:00:16.942Z,99248.53
2023-01-30T01:01:18.577Z,99251.00
2023-01-30T01:02:20.432Z,99254.47
2023-01-30T01:03:22.651Z,99250.16
2023-01-30T01:04:24.420Z,99244.16
2023-01-30T01:05:26.340Z,99242.41
2023-01-30T01:06:27.970Z,99241.41
2023-01-30T01:07:29.541Z,99236.25
2023-01-30T01:08:31.129Z,99230.97
2023-01-30T01:09:32.645Z,99225.91
2023-01-30T01:10:34.373Z,99226.06
2023-01-30T01:11:36.277Z,99234.44
2023-01-30T01:12:37.846Z,99229.25
2023-01-30T01:13:39.452Z,99231.72
2023-01-30T01:14:41.082Z,99224.94
2023-01-30T01:15:43.093Z,99225.00
2023-01-30T01:16:44.634Z,99227.56
2023-01-30T01:17:46.482Z,99219.84
2023-01-30T01:18:48.215Z,99218.19
2023-01-30T01:19:49.780Z,99213.72
2023-01-30T01:20:51.828Z,99216.31
2023-01-30T01:21:53.384Z,99217.09
2023-01-30T01:22:56.276Z,99212.69
2023-01-30T01:23:59.818Z,99209.25
2023-01-30T01:25:01.483Z,99206.91
2023-01-30T01:26:03.439Z,99208.56
2023-01-30T01:27:05.044Z,99206.03
2023-01-30T01:28:07.161Z,99201.66
2023-01-30T01:29:17.856Z,99200.00
2023-01-30T01:30:19.478Z,99204.25
2023-01-30T01:31:21.161Z,99194.00
2023-01-30T01:32:23.403Z,99188.88
2023-01-30T01:33:28.779Z,99188.88
2023-01-30T01:34:30.415Z,99186.22
2023-01-30T01:35:32.005Z,99183.50
2023-01-30T01:36:52.650Z,99189.66
2023-01-30T01:37:55.798Z,99174.19
2023-01-30T01:38:57.489Z,99171.00
2023-01-30T01:39:59.091Z,99170.06
2023-01-30T01:41:01.930Z,99165.75
2023-01-30T01:42:03.847Z,99157.00
2023-01-30T01:43:25.499Z,99149.34
2023-01-30T01:44:27.205Z,99157.91
2023-01-30T01:45:29.742Z,99156.19
2023-01-30T01:46:44.287Z,99159.56
2023-01-30T01:47:57.709Z,99157.84
2023-01-30T01:49:02.267Z,99156.88
2023-01-30T01:50:06.438Z,99155.13
2023-01-30T01:51:15.721Z,99149.91
2023-01-30T01:52:17.734Z,99148.34
2023-01-30T01:53:24.151Z,99151.81
2023-01-30T01:54:43.456Z,99146.78
2023-01-30T01:55:49.972Z,99139.91
2023-01-30T01:56:51.796Z,99137.28
2023-01-30T01:58:17.330Z,99145.94
2023-01-30T01:59:40.327Z,99143.44
2023-01-30T02:00:41.933Z,99145.22
2023-01-30T02:01:43.637Z,99147.63
2023-01-30T02:02:49.869Z,99146.66
2023-01-30T02:03:56.779Z,99143.19
2023-01-30T02:05:00.339Z,99144.91
2023-01-30T02:06:03.579Z,99139.72
2023-01-30T02:07:05.375Z,99146.56
2023-01-30T02:08:09.162Z,99146.56
2023-01-30T02:09:11.046Z,99141.28
2023-01-30T02:10:20.023Z,99137.94
2023-01-30T02:11:39.503Z,99138.06
2023-01-30T02:12:41.744Z,99134.59
2023-01-30T02:13:45.399Z,99135.56
2023-01-30T02:14:48.839Z,99131.31
2023-01-30T02:15:51.676Z,99131.22
2023-01-30T02:16:53.247Z,99126.88
2023-01-30T02:17:54.887Z,99116.59
2023-01-30T02:18:56.668Z,99116.56
2023-01-30T02:20:17.064Z,99116.31
2023-01-30T02:21:55.369Z,99122.34
2023-01-30T02:23:37.804Z,99123.19
2023-01-30T02:25:08.573Z,99126.97
2023-01-30T02:26:47.838Z,99111.38
2023-01-30T02:28:37.158Z,99112.16
2023-01-30T02:29:53.886Z,99113.09
2023-01-30T02:31:18.275Z,99105.25
2023-01-30T02:32:41.193Z,99095.72
2023-01-30T02:34:02.955Z,99101.59
2023-01-30T02:35:04.662Z,99095.50
2023-01-30T02:36:21.323Z,99099.69
2023-01-30T02:37:55.150Z,99092.69
2023-01-30T02:39:06.632Z,99088.56
2023-01-30T02:40:32.543Z,99089.34
2023-01-30T02:42:02.285Z,99088.50
2023-01-30T02:43:16.482Z,99090.25
2023-01-30T02:44:23.145Z,99083.16
2023-01-30T02:45:35.416Z,99088.19
2023-01-30T02:47:04.991Z,99086.63
2023-01-30T02:48:12.230Z,99082.16
2023-01-30T02:49:48.312Z,99074.38
2023-01-30T02:51:03.227Z,99075.22
2023-01-30T02:52:07.915Z,99082.03
2023-01-30T02:53:10.118Z,99079.47
2023-01-30T02:54:12.947Z,99071.75
2023-01-30T02:55:23.419Z,99076.81
2023-01-30T02:56:25.676Z,99072.72
2023-01-30T02:57:27.892Z,99071.75
2023-01-30T02:58:47.201Z,99063.94
2023-01-30T02:59:57.403Z,99060.47
2023-01-30T03:01:31.333Z,99056.13
2023-01-30T03:02:57.187Z,99045.78
2023-01-30T03:04:18.660Z,99049.94
2023-01-30T03:05:51.678Z,99046.66
2023-01-30T03:07:05.564Z,99043.19
2023-01-30T03:08:22.826Z,99035.44
2023-01-30T03:09:33.539Z,99037.28
2023-01-30T03:10:48.512Z,99042.47
2023-01-30T03:12:04.687Z,99045.06
2023-01-30T03:13:26.208Z,99046.19
2023-01-30T03:14:41.326Z,99040.91
2023-01-30T03:15:50.986Z,99034.72
2023-01-30T03:16:56.465Z,99030.50
2023-01-30T03:17:58.753Z,99026.19
2023-01-30T03:19:01.588Z,99035.03
2023-01-30T03:20:04.120Z,99027.25
2023-01-30T03:21:07.390Z,99022.16
2023-01-30T03:22:09.373Z,99023.72
2023-01-30T03:23:10.973Z,99022.81
2023-01-30T03:24:13.617Z,99022.94
2023-01-30T03:25:21.151Z,99026.19
2023-01-30T03:26:28.359Z,99025.31
2023-01-30T03:27:30.403Z,99023.72
2023-01-30T03:28:32.667Z,99024.69
2023-01-30T03:29:34.513Z,99018.47
2023-01-30T03:30:36.164Z,99017.78
2023-01-30T03:31:42.770Z,99010.16
2023-01-30T03:32:44.458Z,99011.81
2023-01-30T03:33:46.544Z,99022.94
2023-01-30T03:34:48.170Z,99020.34
2023-01-30T03:35:51.015Z,99015.94
2023-01-30T03:36:52.916Z,99019.19
2023-01-30T03:37:54.811Z,99008.97
2023-01-30T03:38:56.388Z,99008.06
2023-01-30T03:39:59.265Z,98998.50
2023-01-30T03:41:02.817Z,98991.75
2023-01-30T03:42:04.519Z,98981.41
2023-01-30T03:43:06.564Z,98981.44
2023-01-30T03:44:08.785Z,98983.25
2023-01-30T03:45:11.487Z,98979.72
2023-01-30T03:46:13.118Z,98983.19
2023-01-30T03:47:14.780Z,98982.25
2023-01-30T03:48:16.607Z,98984.88
2023-01-30T03:49:18.148Z,98989.13
2023-01-30T03:50:21.146Z,98979.88
2023-01-30T03:51:22.855Z,98973.78
2023-01-30T03:52:24.564Z,98975.59
2023-01-30T03:53:26.164Z,98972.16
2023-01-30T03:54:28.182Z,98973.69
2023-01-30T03:55:29.802Z,98965.94
2023-01-30T03:56:31.907Z,98968.38
2023-01-30T03:57:33.504Z,98964.16
2023-01-30T03:58:35.104Z,98969.44
2023-01-30T03:59:48.855Z,98962.53
2023-01-30T04:00:50.931Z,98958.22
2023-01-30T04:01:52.568Z,98955.66
2023-01-30T04:02:54.417Z,98949.47
2023-01-30T04:03:56.055Z,98958.19
2023-01-30T04:04:57.672Z,98953.25
2023-01-30T04:05:59.338Z,98957.31
2023-01-30T04:07:01.044Z,98951.88
2023-01-30T04:08:03.210Z,98952.66
2023-01-30T04:09:05.277Z,98956.31
2023-01-30T04:10:19.734Z,98951.34
2023-01-30T04:11:21.819Z,98951.16
2023-01-30T04:12:23.452Z,98952.88
2023-01-30T04:13:29.810Z,98951.06
2023-01-30T04:14:31.569Z,98945.91
2023-01-30T04:16:19.564Z,98944.25
2023-01-30T04:17:33.060Z,98945.06
2023-01-30T04:19:10.071Z,98938.22
2023-01-30T04:20:12.154Z,98937.28
2023-01-30T04:21:19.941Z,98940.94
2023-01-30T04:22:21.534Z,98938.28
2023-01-30T04:23:23.223Z,98936.56
2023-01-30T04:24:25.364Z,98936.25
2023-01-30T04:25:27.071Z,98936.16
2023-01-30T04:26:29.288Z,98933.69
2023-01-30T04:27:30.986Z,98937.00
2023-01-30T04:28:44.525Z,98927.59
2023-01-30T04:29:47.605Z,98931.00
2023-01-30T04:30:49.306Z,98919.78
2023-01-30T04:32:11.181Z,98917.91
2023-01-30T04:33:13.670Z,98918.03
2023-01-30T04:34:15.722Z,98915.38
2023-01-30T04:35:18.081Z,98912.88
2023-01-30T04:36:20.041Z,98922.31
2023-01-30T04:37:21.761Z,98922.28
2023-01-30T04:38:24.797Z,98919.91
2023-01-30T04:39:27.129Z,98920.69
2023-01-30T04:40:28.828Z,98916.44
2023-01-30T04:41:30.839Z,98909.59
2023-01-30T04:42:35.311Z,98906.03
2023-01-30T04:44:05.564Z,98905.91
2023-01-30T04:45:18.544Z,98911.00
2023-01-30T04:46:20.444Z,98904.06
2023-01-30T04:47:22.061Z,98905.00
2023-01-30T04:48:25.187Z,98893.69
2023-01-30T04:49:27.093Z,98893.56
2023-01-30T04:50:29.113Z,98895.19
2023-01-30T04:51:30.732Z,98888.34
2023-01-30T04:52:34.071Z,98890.88
2023-01-30T04:53:35.675Z,98891.66
2023-01-30T04:54:37.272Z,98889.25
2023-01-30T04:55:38.889Z,98882.91
2023-01-30T04:56:40.480Z,98882.84
2023-01-30T04:57:42.263Z,98894.81
2023-01-30T04:58:43.868Z,98887.91
2023-01-30T04:59:47.138Z,98876.66
2023-01-30T05:00:50.774Z,98879.19
2023-01-30T05:01:52.809Z,98869.59
2023-01-30T05:02:55.126Z,98880.56
2023-01-30T05:03:56.890Z,98865.84
2023-01-30T05:04:58.842Z,98861.66
2023-01-30T05:06:00.447Z,98864.38
2023-01-30T05:07:02.030Z,98866.22
2023-01-30T05:08:03.969Z,98861.91
2023-01-30T05:09:05.776Z,98877.25
2023-01-30T05:10:08.805Z,98871.91
2023-01-30T05:11:10.420Z,98877.97
2023-01-30T05:12:11.945Z,98861.75
2023-01-30T05:13:13.533Z,98857.66
2023-01-30T05:14:15.129Z,98860.38
2023-01-30T05:15:17.154Z,98854.97
2023-01-30T05:16:19.978Z,98853.34
2023-01-30T05:17:21.595Z,98848.50
2023-01-30T05:18:23.286Z,98852.75
2023-01-30T05:19:24.848Z,98852.88
2023-01-30T05:20:26.474Z,98853.78
2023-01-30T05:21:28.306Z,98852.75
2023-01-30T05:22:29.914Z,98846.00
2023-01-30T05:23:31.514Z,98865.13
2023-01-30T05:24:33.075Z,98856.34
2023-01-30T05:25:34.623Z,98858.16
2023-01-30T05:26:36.162Z,98852.28
2023-01-30T05:27:37.736Z,98856.59
2023-01-30T05:28:39.863Z,98859.28
2023-01-30T05:29:41.507Z,98865.28
2023-01-30T05:30:43.879Z,98874.66
2023-01-30T05:31:46.248Z,98861.84
2023-01-30T05:32:47.878Z,98859.28
2023-01-30T05:33:50.634Z,98851.47
2023-01-30T05:34:52.192Z,98831.63
2023-01-30T05:35:53.836Z,98818.97
2023-01-30T05:36:55.447Z,98800.03
2023-01-30T05:37:58.001Z,98799.13
2023-01-30T05:39:00.905Z,98789.63
2023-01-30T05:40:02.531Z,98793.19
2023-01-30T05:41:06.474Z,98797.56
2023-01-30T05:42:08.075Z,98806.84
2023-01-30T05:43:09.664Z,98794.16
2023-01-30T05:44:12.579Z,98792.28
2023-01-30T05:45:14.396Z,98797.41
2023-01-30T05:46:16.059Z,98765.53
2023-01-30T05:47:17.635Z,98752.56
2023-01-30T05:48:19.238Z,98762.03
2023-01-30T05:49:20.955Z,98764.44
2023-01-30T05:50:22.555Z,98760.09
2023-01-30T05:51:26.412Z,98771.31
2023-01-30T05:52:28.001Z,98770.53
2023-01-30T05:53:32.131Z,98777.50
2023-01-30T05:54:34.600Z,98776.72
2023-01-30T05:55:36.161Z,98775.03
2023-01-30T05:56:37.814Z,98782.72
2023-01-30T05:57:39.630Z,98777.69
2023-01-30T05:58:41.695Z,98793.88
2023-01-30T05:59:43.315Z,98792.97
2023-01-30T06:00:44.841Z,98798.16
2023-01-30T06:01:46.441Z,98793.06
2023-01-30T06:02:48.105Z,98787.81
2023-01-30T06:03:49.995Z,98802.50
2023-01-30T06:04:51.566Z,98790.63
2023-01-30T06:05:53.174Z,98800.88
2023-01-30T06:06:54.704Z,98805.84
2023-01-30T06:07:56.288Z,98799.06
2023-01-30T06:08:57.883Z,98787.03
2023-01-30T06:09:59.402Z,98779.03
2023-01-30T06:11:02.630Z,98779.94
2023-01-30T06:12:04.402Z,98777.41
2023-01-30T06:13:05.940Z,98777.22
2023-01-30T06:14:07.540Z,98769.44
2023-01-30T06:15:10.068Z,98771.31
2023-01-30T06:16:13.032Z,98769.59
2023-01-30T06:17:15.065Z,98775.44
2023-01-30T06:18:16.823Z,98772.09
2023-01-30T06:19:18.440Z,98775.31
2023-01-30T06:20:21.059Z,98766.59
2023-01-30T06:21:22.626Z,98782.34
2023-01-30T06:22:24.169Z,98765.97
2023-01-30T06:23:25.769Z,98765.25
2023-01-30T06:24:27.358Z,98761.53
2023-01-30T06:25:28.996Z,98776.09
2023-01-30T06:26:30.650Z,98771.94
2023-01-30T06:27:32.290Z,98776.09
2023-01-30T06:28:33.939Z,98771.84
2023-01-30T06:29:35.491Z,98778.59
2023-01-30T06:30:37.144Z,98775.25
2023-01-30T06:31:38.741Z,98778.66
2023-01-30T06:32:41.033Z,98788.78
2023-01-30T06:33:42.575Z,98791.41
2023-01-30T06:34:44.123Z,98787.03
2023-01-30T06:35:49.124Z,98790.47
2023-01-30T06:36:50.710Z,98788.84
2023-01-30T06:37:52.331Z,98795.69
2023-01-30T06:38:53.896Z,98791.28
2023-01-30T06:39:55.440Z,98796.56
2023-01-30T06:40:56.990Z,98797.63
2023-01-30T06:41:58.545Z,98795.81
2023-01-30T06:43:00.121Z,98796.44
2023-01-30T06:44:01.690Z,98794.72
2023-01-30T06:45:03.460Z,98794.06
2023-01-30T06:46:05.169Z,98791.19
2023-01-30T06:47:06.785Z,98792.72
2023-01-30T06:48:09.191Z,98786.72
2023-01-30T06:49:10.902Z,98786.72
2023-01-30T06:50:13.408Z,98795.44
2023-01-30T06:51:15.027Z,98799.03
2023-01-30T06:52:16.592Z,98790.34
2023-01-30T06:53:18.141Z,98792.13
2023-01-30T06:54:19.679Z,98802.59
2023-01-30T06:55:26.574Z,98797.44
2023-01-30T06:56:28.086Z,98782.00
2023-01-30T06:57:29.634Z,98779.44
2023-01-30T06:58:31.393Z,98783.81
2023-01-30T06:59:32.925Z,98780.41
2023-01-30T07:00:35.612Z,98774.72
2023-01-30T07:01:37.253Z,98770.34
2023-01-30T07:02:38.826Z,98765.28
2023-01-30T07:03:40.533Z,98761.78
2023-01-30T07:04:42.132Z,98759.03
2023-01-30T07:05:45.594Z,98764.88
2023-01-30T07:06:47.194Z,98760.69
2023-01-30T07:07:48.774Z,98763.31
2023-01-30T07:08:50.599Z,98752.97
2023-01-30T07:10:07.039Z,98747.84
2023-01-30T07:11:09.166Z,98752.88
2023-01-30T07:12:10.687Z,98746.13
2023-01-30T07:13:13.109Z,98738.31
2023-01-30T07:14:14.702Z,98730.78
2023-01-30T07:15:16.852Z,98741.16
2023-01-30T07:16:18.636Z,98746.91
2023-01-30T07:17:23.398Z,98745.22
2023-01-30T07:18:24.998Z,98742.97
2023-01-30T07:19:26.637Z,98736.78
2023-01-30T07:20:28.375Z,98741.03
2023-01-30T07:21:30.011Z,98738.22
2023-01-30T07:22:31.621Z,98739.09
2023-01-30T07:23:33.226Z,98729.66
2023-01-30T07:24:34.769Z,98730.66
2023-01-30T07:25:36.338Z,98743.47
2023-01-30T07:26:38.200Z,98738.13
2023-01-30T07:27:39.750Z,98738.97
2023-01-30T07:28:41.326Z,98732.97
2023-01-30T07:29:42.956Z,98742.56
2023-01-30T07:30:44.729Z,98737.34
2023-01-30T07:31:46.468Z,98736.59
2023-01-30T07:32:55.653Z,98737.28
2023-01-30T07:33:57.263Z,98733.81
2023-01-30T07:34:58.834Z,98726.97
2023-01-30T07:36:00.433Z,98728.72
2023-01-30T07:37:02.068Z,98719.44
2023-01-30T07:38:04.670Z,98710.03
2023-01-30T07:39:06.229Z,98708.22
2023-01-30T07:40:08.521Z,98710.22
2023-01-30T07:41:10.081Z,98704.13
2023-01-30T07:42:11.788Z,98701.53
2023-01-30T07:43:14.174Z,98701.41
2023-01-30T07:44:15.763Z,98700.63
2023-01-30T07:45:17.555Z,98707.38
2023-01-30T07:46:19.177Z,98716.72
2023-01-30T07:47:20.723Z,98721.81
2023-01-30T07:48:22.283Z,98726.00
2023-01-30T07:49:23.889Z,98735.44
2023-01-30T07:50:25.497Z,98736.25
2023-01-30T07:51:27.396Z,98737.91
2023-01-30T07:52:29.008Z,98746.38
2023-01-30T07:53:30.612Z,98742.84
2023-01-30T07:54:32.232Z,98732.50
2023-01-30T07:55:34.750Z,98737.47
2023-01-30T07:56:36.347Z,98739.47
2023-01-30T07:57:37.891Z,98735.09
2023-01-30T07:58:39.855Z,98728.31
2023-01-30T07:59:41.469Z,98724.78
2023-01-30T08:00:44.038Z,98730.00
2023-01-30T08:01:45.659Z,98741.03
2023-01-30T08:02:47.200Z,98726.44
2023-01-30T08:03:49.121Z,98719.69
2023-01-30T08:04:50.741Z,98715.28
2023-01-30T08:05:52.424Z,98715.66
2023-01-30T08:06:53.999Z,98695.38
2023-01-30T08:07:56.504Z,98693.97
2023-01-30T08:08:58.132Z,98683.09
2023-01-30T08:09:59.766Z,98684.06
2023-01-30T08:11:01.779Z,98677.34
2023-01-30T08:12:03.400Z,98690.44
2023-01-30T08:13:04.994Z,98679.50
2023-01-30T08:14:06.595Z,98676.69
2023-01-30T08:15:10.051Z,98680.13
2023-01-30T08:16:11.685Z,98678.22
2023-01-30T08:17:13.352Z,98673.22
2023-01-30T08:18:14.960Z,98674.66
2023-01-30T08:19:16.566Z,98670.19
2023-01-30T08:20:18.520Z,98662.94
2023-01-30T08:21:20.189Z,98667.25
2023-01-30T08:22:21.790Z,98654.03
2023-01-30T08:23:23.394Z,98661.66
2023-01-30T08:24:24.989Z,98658.53
2023-01-30T08:25:26.573Z,98660.06
2023-01-30T08:26:28.346Z,98658.63
2023-01-30T08:27:30.014Z,98659.34
2023-01-30T08:28:32.844Z,98660.47
2023-01-30T08:29:34.553Z,98649.00
2023-01-30T08:30:36.170Z,98654.44
2023-01-30T08:31:37.784Z,98650.13
2023-01-30T08:32:39.501Z,98650.50
2023-01-30T08:33:41.073Z,98646.16
2023-01-30T08:34:42.687Z,98645.13
2023-01-30T08:35:44.255Z,98638.28
2023-01-30T08:36:48.646Z,98628.94
2023-01-30T08:37:50.255Z,98635.56
2023-01-30T08:38:51.836Z,98630.94
2023-01-30T08:39:53.464Z,98624.00
2023-01-30T08:40:55.065Z,98628.28
2023-01-30T08:41:56.674Z,98631.31
2023-01-30T08:42:58.237Z,98626.78
2023-01-30T08:43:59.778Z,98627.72
2023-01-30T08:45:01.524Z,98630.22
2023-01-30T08:46:03.236Z,98618.03
2023-01-30T08:47:04.896Z,98623.03
2023-01-30T08:48:07.127Z,98630.97
2023-01-30T08:49:08.723Z,98619.69
2023-01-30T08:50:10.946Z,98619.22
2023-01-30T08:51:12.547Z,98611.41
2023-01-30T08:52:14.163Z,98621.78
2023-01-30T08:53:15.764Z,98621.72
2023-01-30T08:54:17.354Z,98618.28
2023-01-30T08:55:19.078Z,98611.41
2023-01-30T08:56:20.654Z,98614.53
2023-01-30T08:57:22.286Z,98624.00
2023-01-30T08:58:23.884Z,98627.56
2023-01-30T08:59:25.484Z,98613.84
2023-01-30T09:00:28.229Z,98618.78
2023-01-30T09:01:29.864Z,98619.06
2023-01-30T09:02:31.511Z,98612.91
2023-01-30T09:03:33.135Z,98614.59
2023-01-30T09:04:34.735Z,98613.88
2023-01-30T09:05:36.272Z,98611.16
2023-01-30T09:06:37.845Z,98610.34
2023-01-30T09:07:39.460Z,98598.88
2023-01-30T09:08:41.007Z,98609.22
2023-01-30T09:09:42.759Z,98606.63
2023-01-30T09:10:44.292Z,98608.06
2023-01-30T09:11:45.868Z,98603.50
2023-01-30T09:12:47.686Z,98609.44
2023-01-30T09:13:49.892Z,98599.25
2023-01-30T09:14:51.493Z,98598.50
2023-01-30T09:15:53.128Z,98607.16
2023-01-30T09:16:54.771Z,98602.69
2023-01-30T09:17:56.419Z,98608.38
2023-01-30T09:18:58.019Z,98605.06
2023-01-30T09:19:59.635Z,98612.81
2023-01-30T09:21:05.116Z,98608.31
2023-01-30T09:22:07.239Z,98611.72
2023-01-30T09:23:09.145Z,98607.25
2023-01-30T09:24:10.738Z,98607.09
2023-01-30T09:25:12.690Z,98605.34
2023-01-30T09:26:14.298Z,98599.56
2023-01-30T09:27:15.884Z,98608.47
2023-01-30T09:28:17.436Z,98603.91
2023-01-30T09:29:19.244Z,98593.50
2023-01-30T09:30:21.175Z,98597.84
2023-01-30T09:31:22.991Z,98584.16
2023-01-30T09:32:24.628Z,98590.09
2023-01-30T09:33:26.424Z,98588.28
2023-01-30T09:34:28.568Z,98580.53
2023-01-30T09:35:30.542Z,98580.38
2023-01-30T09:36:32.185Z,98580.31
2023-01-30T09:37:34.380Z,98567.28
2023-01-30T09:38:35.889Z,98565.34
2023-01-30T09:39:37.465Z,98566.25
2023-01-30T09:41:04.878Z,98560.06
2023-01-30T09:42:48.676Z,98564.31
2023-01-30T09:44:08.204Z,98564.31
2023-01-30T09:45:40.572Z,98547.25
2023-01-30T09:46:48.196Z,98550.66
2023-01-30T09:48:02.802Z,98549.50
2023-01-30T09:49:37.361Z,98544.50
2023-01-30T09:51:09.975Z,98537.34
2023-01-30T09:52:29.708Z,98537.34
2023-01-30T09:53:33.951Z,98542.44
2023-01-30T09:54:40.305Z,98530.13
2023-01-30T09:55:42.283Z,98536.28
2023-01-30T09:56:43.890Z,98536.13
2023-01-30T09:57:48.052Z,98526.53
2023-01-30T09:58:55.074Z,98528.81
2023-01-30T10:00:17.628Z,98526.06
2023-01-30T10:01:48.645Z,98521.91
2023-01-30T10:03:08.637Z,98523.66
2023-01-30T10:04:20.328Z,98526.91
2023-01-30T10:05:25.431Z,98518.31
2023-01-30T10:06:27.058Z,98526.16
2023-01-30T10:07:56.771Z,98527.00
2023-01-30T10:09:45.733Z,98521.06
2023-01-30T10:11:00.804Z,98515.91
2023-01-30T10:12:51.183Z,98514.75
2023-01-30T10:14:08.062Z,98519.81
2023-01-30T10:15:23.250Z,98508.50
2023-01-30T10:16:36.693Z,98507.34
2023-01-30T10:18:16.510Z,98519.28
2023-01-30T10:19:41.079Z,98508.03
2023-01-30T10:21:04.038Z,98501.78
2023-01-30T10:22:24.013Z,98505.19
2023-01-30T10:23:54.962Z,98497.59
2023-01-30T10:25:27.000Z,98482.00
2023-01-30T10:26:29.816Z,98490.25
2023-01-30T10:27:33.254Z,98504.94
2023-01-30T10:28:52.473Z,98493.78
2023-01-30T10:30:05.346Z,98489.34
2023-01-30T10:31:18.810Z,98489.78
2023-01-30T10:32:39.951Z,98488.00
2023-01-30T10:34:05.597Z,98482.84
2023-01-30T10:35:16.829Z,98479.03
2023-01-30T10:36:25.342Z,98477.19
2023-01-30T10:37:33.345Z,98463.50
2023-01-30T10:38:50.887Z,98464.44
2023-01-30T10:40:02.852Z,98454.91
2023-01-30T10:41:33.616Z,98453.16
2023-01-30T10:42:39.176Z,98443.00
2023-01-30T10:43:47.059Z,98446.41
2023-01-30T10:44:49.279Z,98451.25
2023-01-30T10:46:10.709Z,98443.50
2023-01-30T10:47:24.373Z,98436.38
2023-01-30T10:48:46.362Z,98440.56
2023-01-30T10:49:54.130Z,98438.63
2023-01-30T10:51:03.121Z,98438.56
2023-01-30T10:52:19.642Z,98442.81
2023-01-30T10:53:40.904Z,98438.19
2023-01-30T10:54:51.199Z,98437.09
2023-01-30T10:55:59.552Z,98434.94
2023-01-30T10:57:18.986Z,98438.34
2023-01-30T10:58:20.478Z,98429.41
2023-01-30T10:59:30.983Z,98429.97
2023-01-30T11:01:04.424Z,98422.69
2023-01-30T11:02:25.412Z,98425.75
2023-01-30T11:03:37.923Z,98423.69
2023-01-30T11:04:49.651Z,98414.25
2023-01-30T11:05:52.349Z,98413.34
2023-01-30T11:06:55.731Z,98417.78
2023-01-30T11:07:57.326Z,98421.09
2023-01-30T11:08:58.860Z,98412.25
2023-01-30T11:10:00.838Z,98413.94
2023-01-30T11:11:31.819Z,98406.50
2023-01-30T11:12:33.422Z,98398.66
2023-01-30T11:13:34.966Z,98410.59
2023-01-30T11:14:57.660Z,98402.53
2023-01-30T11:16:09.168Z,98404.50
2023-01-30T11:17:16.581Z,98411.22
2023-01-30T11:19:16.963Z,98405.06
2023-01-30T11:19:42.521Z,98400.63
2023-01-30T11:20:52.371Z,98395.44
2023-01-30T11:21:59.955Z,98386.38
2023-01-30T11:23:07.356Z,98393.31
2023-01-30T11:24:17.699Z,98395.56
2023-01-30T11:25:22.176Z,98382.50
2023-01-30T11:26:46.713Z,98372.16
2023-01-30T11:28:00.628Z,98370.69
2023-01-30T11:29:22.945Z,98363.78
2023-01-30T11:30:28.870Z,98363.38
2023-01-30T11:31:41.046Z,98355.72
2023-01-30T11:32:46.110Z,98365.91
2023-01-30T11:34:04.773Z,98359.88
2023-01-30T11:35:06.272Z,98369.22
2023-01-30T11:36:25.174Z,98350.44
2023-01-30T11:37:38.341Z,98357.22
2023-01-30T11:38:56.117Z,98359.06
2023-01-30T11:39:57.704Z,98354.69
2023-01-30T11:41:04.995Z,98364.03
2023-01-30T11:42:10.547Z,98359.88
2023-01-30T11:43:13.863Z,98346.94
2023-01-30T11:44:15.498Z,98361.19
2023-01-30T11:45:18.805Z,98352.84
2023-01-30T11:46:21.138Z,98352.75
2023-01-30T11:47:26.449Z,98348.97
2023-01-30T11:48:33.707Z,98340.38
2023-01-30T11:50:30.752Z,98341.28
2023-01-30T11:51:18.235Z,98334.38
2023-01-30T11:52:26.609Z,98348.97
2023-01-30T11:53:30.556Z,98347.50
2023-01-30T11:54:37.788Z,98339.63
2023-01-30T11:55:39.757Z,98339.53
2023-01-30T11:56:49.691Z,98336.88
2023-01-30T11:57:56.317Z,98344.81
2023-01-30T11:59:07.885Z,98332.78
2023-01-30T12:00:22.545Z,98336.88
2023-01-30T12:01:32.800Z,98332.59
2023-01-30T12:02:38.106Z,98336.09
2023-01-30T12:03:54.745Z,98331.50
2023-01-30T12:05:01.020Z,98321.22
2023-01-30T12:06:03.661Z,98323.53
2023-01-30T12:07:17.636Z,98337.41
2023-01-30T12:08:40.786Z,98327.78
2023-01-30T12:09:43.227Z,98329.38
2023-01-30T12:10:46.724Z,98326.78
2023-01-30T12:11:48.278Z,98324.06
2023-01-30T12:12:52.746Z,98320.41
2023-01-30T12:14:05.212Z,98324.00
2023-01-30T12:15:22.931Z,98318.91
2023-01-30T12:16:48.215Z,98317.06
2023-01-30T12:18:01.285Z,98315.41
2023-01-30T12:19:11.179Z,98310.22
2023-01-30T12:20:23.528Z,98313.56
2023-01-30T12:21:47.444Z,98312.72
2023-01-30T12:23:12.014Z,98319.84
2023-01-30T12:24:17.919Z,98320.94
2023-01-30T12:25:33.007Z,98310.78
2023-01-30T12:26:40.687Z,98308.19
2023-01-30T12:28:19.789Z,98309.88
2023-01-30T12:29:39.816Z,98298.56
2023-01-30T12:30:51.752Z,98295.25
2023-01-30T12:32:06.252Z,98298.56
2023-01-30T12:33:12.548Z,98294.13
2023-01-30T12:34:14.172Z,98298.19
2023-01-30T12:35:24.174Z,98286.09
2023-01-30T12:36:49.717Z,98290.53
2023-01-30T12:38:21.713Z,98297.19
2023-01-30T12:39:26.081Z,98295.53
2023-01-30T12:40:53.895Z,98287.38
2023-01-30T12:42:21.590Z,98285.81
2023-01-30T12:43:53.347Z,98293.47
2023-01-30T12:45:16.270Z,98290.88
2023-01-30T12:46:21.212Z,98290.63
2023-01-30T12:47:45.216Z,98285.34
2023-01-30T12:50:38.311Z,98285.81
2023-01-30T12:52:02.219Z,98283.22
2023-01-30T12:53:27.846Z,98288.03
2023-01-30T12:54:59.675Z,98285.63
2023-01-30T12:56:28.801Z,98285.44
2023-01-30T12:57:39.207Z,98277.66
2023-01-30T12:59:01.062Z,98287.75
2023-01-30T13:00:37.884Z,98279.16
2023-01-30T13:01:48.289Z,98291.91
2023-01-30T13:03:18.644Z,98290.97